Time;durP1;ratioP1;P1;durP2;ratioP2;P2;SDS_P1;SDS_P2;PMS_P1;PMS_P2;Temp;Humidity;BMP_temperature;BMP_pressure;BME280_temperature;BME280_humidity;BME280_pressure;Samples;Min_cycle;Max_cycle;Signal;HPM_P1;HPM_P2
2023/05/27 00:00:46;;;;;;;;;;;11.40;99.90;;;;;;5108314;28;19912;-65
2023/05/27 00:03:12;;;;;;;;;;;11.50;99.90;;;;;;5104859;28;19919;-66
2023/05/27 00:05:39;;;;;;;;;;;11.50;99.90;;;;;;5114602;28;19911;-69
2023/05/27 00:08:06;;;;;;;;;;;11.60;99.90;;;;;;5115458;28;19926;-66
2023/05/27 00:10:32;;;;;;;;;;;11.70;99.90;;;;;;5114472;28;19912;-65
2023/05/27 00:12:59;;;;;;;;;;;11.80;99.90;;;;;;5113987;28;19961;-68
2023/05/27 00:15:26;;;;;;;;;;;11.80;99.90;;;;;;5113908;28;20368;-68
2023/05/27 00:17:54;;;;;;;;;;;11.90;99.90;;;;;;5110726;28;19908;-68
2023/05/27 00:20:22;;;;;;;;;;;12.00;99.90;;;;;;5112551;28;20392;-67
2023/05/27 00:22:50;;;;;;;;;;;12.10;99.90;;;;;;5112552;28;20390;-63
2023/05/27 00:25:20;;;;;;;;;;;12.10;99.90;;;;;;5113635;28;20018;-65
2023/05/27 00:27:47;;;;;;;;;;;12.20;99.90;;;;;;5114395;28;20378;-67
2023/05/27 00:30:14;;;;;;;;;;;12.30;99.60;;;;;;5111675;28;19916;-67
2023/05/27 00:32:41;;;;;;;;;;;12.40;99.40;;;;;;5111491;28;20006;-67
2023/05/27 00:35:08;;;;;;;;;;;12.40;99.20;;;;;;5113998;28;19914;-65
2023/05/27 00:37:34;;;;;;;;;;;12.50;99.30;;;;;;5095328;28;20333;-67
2023/05/27 00:40:01;;;;;;;;;;;12.60;99.10;;;;;;5109981;28;19915;-67
2023/05/27 00:42:28;;;;;;;;;;;12.70;99.10;;;;;;5095584;28;19965;-65
2023/05/27 00:44:54;;;;;;;;;;;12.80;98.60;;;;;;5114178;28;19919;-67
2023/05/27 00:47:21;;;;;;;;;;;12.90;98.60;;;;;;5109863;28;19912;-66
2023/05/27 00:49:48;;;;;;;;;;;13.00;98.30;;;;;;5111638;28;19927;-66
2023/05/27 00:52:18;;;;;;;;;;;13.00;98.70;;;;;;5112504;28;20285;-66
2023/05/27 00:54:45;;;;;;;;;;;13.20;97.40;;;;;;5093732;28;19918;-67
2023/05/27 00:57:12;;;;;;;;;;;13.30;97.40;;;;;;5112328;28;19908;-68
2023/05/27 00:59:39;;;;;;;;;;;13.30;97.30;;;;;;5096691;28;20358;-68
2023/05/27 01:02:05;;;;;;;;;;;13.40;97.20;;;;;;5091744;28;19912;-69
2023/05/27 01:04:32;;;;;;;;;;;13.50;97.00;;;;;;5094002;28;19908;-68
2023/05/27 01:07:16;;;;;;;;;;;13.60;97.30;;;;;;5102945;28;19916;-68
2023/05/27 01:09:48;;;;;;;;;;;13.70;96.40;;;;;;5110551;28;19915;-67
2023/05/27 01:12:32;;;;;;;;;;;13.90;96.80;;;;;;5111525;28;19945;-66
2023/05/27 01:14:58;;;;;;;;;;;14.00;96.70;;;;;;5103027;28;19912;-67
2023/05/27 01:17:29;;;;;;;;;;;14.20;96.50;;;;;;5089844;28;19987;-67
2023/05/27 01:19:56;;;;;;;;;;;14.30;95.80;;;;;;5087091;28;19912;-66
2023/05/27 01:22:26;;;;;;;;;;;14.50;96.10;;;;;;5093167;28;19957;-66
2023/05/27 01:24:53;;;;;;;;;;;14.70;96.20;;;;;;5113453;28;20322;-67
2023/05/27 01:27:20;;;;;;;;;;;14.80;95.70;;;;;;5113020;28;19908;-68
2023/05/27 01:29:47;;;;;;;;;;;14.90;95.70;;;;;;5112932;28;19922;-67
2023/05/27 01:32:29;;;;;;;;;;;15.00;95.40;;;;;;5095497;28;19916;-66
2023/05/27 01:35:09;;;;;;;;;;;15.10;94.80;;;;;;5092972;28;19912;-66
2023/05/27 01:37:38;;;;;;;;;;;15.40;94.80;;;;;;5110932;28;19990;-67
2023/05/27 01:40:06;;;;;;;;;;;15.40;93.50;;;;;;5097356;28;19977;-67
2023/05/27 01:42:36;;;;;;;;;;;15.50;93.70;;;;;;5096793;28;19927;-68
2023/05/27 01:45:06;;;;;;;;;;;15.60;93.90;;;;;;5106278;28;20028;-67
2023/05/27 01:47:33;;;;;;;;;;;15.80;93.40;;;;;;5110925;28;19918;-67
2023/05/27 01:50:00;;;;;;;;;;;15.80;92.50;;;;;;5111772;28;20360;-67
2023/05/27 01:52:26;;;;;;;;;;;15.90;91.60;;;;;;5106339;28;19916;-64
2023/05/27 01:54:53;;;;;;;;;;;15.90;91.90;;;;;;5104850;28;20002;-66
2023/05/27 01:57:20;;;;;;;;;;;16.10;91.40;;;;;;5101529;28;19925;-68
2023/05/27 01:59:47;;;;;;;;;;;16.20;91.40;;;;;;5102014;28;19999;-68
2023/05/27 02:02:13;;;;;;;;;;;16.30;91.30;;;;;;5101016;28;20019;-68
2023/05/27 02:04:40;;;;;;;;;;;16.40;90.80;;;;;;5111655;28;19969;-68
2023/05/27 02:07:06;;;;;;;;;;;16.40;90.30;;;;;;5095464;28;19912;-65
2023/05/27 02:09:33;;;;;;;;;;;16.30;90.30;;;;;;5097221;28;19919;-68
2023/05/27 02:12:00;;;;;;;;;;;16.40;90.40;;;;;;5112841;28;20367;-65
2023/05/27 02:14:27;;;;;;;;;;;16.40;90.00;;;;;;5112878;28;19911;-65
2023/05/27 02:16:54;;;;;;;;;;;16.40;89.40;;;;;;5109732;28;20456;-65
2023/05/27 02:19:22;;;;;;;;;;;16.40;89.80;;;;;;5092677;28;19908;-67
2023/05/27 02:21:48;;;;;;;;;;;16.50;89.80;;;;;;5106242;28;20324;-66
2023/05/27 02:24:15;;;;;;;;;;;16.50;89.10;;;;;;5112596;28;19973;-66
2023/05/27 02:26:41;;;;;;;;;;;16.50;88.00;;;;;;5111836;28;19908;-66
2023/05/27 02:29:08;;;;;;;;;;;16.60;87.60;;;;;;5111948;28;20010;-67
2023/05/27 02:31:35;;;;;;;;;;;16.60;87.10;;;;;;5112558;28;19911;-67
2023/05/27 02:34:01;;;;;;;;;;;16.60;86.90;;;;;;5105628;28;20369;-66
2023/05/27 02:36:28;;;;;;;;;;;16.60;86.50;;;;;;5092964;28;19913;-66
2023/05/27 02:38:55;;;;;;;;;;;16.70;87.40;;;;;;5111544;28;19908;-66
2023/05/27 02:41:21;;;;;;;;;;;16.70;86.20;;;;;;5112131;28;20265;-66
2023/05/27 02:43:48;;;;;;;;;;;16.80;86.20;;;;;;5112726;28;20420;-66
2023/05/27 02:46:15;;;;;;;;;;;16.90;86.50;;;;;;5112726;28;19908;-66
2023/05/27 02:48:41;;;;;;;;;;;17.00;85.40;;;;;;5094606;28;19920;-66
2023/05/27 02:51:08;;;;;;;;;;;17.30;85.90;;;;;;5104310;28;19908;-66
2023/05/27 02:53:34;;;;;;;;;;;18.20;81.30;;;;;;5112327;28;19912;-66
2023/05/27 02:56:01;;;;;;;;;;;19.10;78.40;;;;;;5091910;28;19915;-66
2023/05/27 02:58:28;;;;;;;;;;;19.90;77.20;;;;;;5091943;28;19912;-66
2023/05/27 03:00:54;;;;;;;;;;;20.40;76.80;;;;;;5104774;28;20280;-66
2023/05/27 03:03:21;;;;;;;;;;;20.80;75.30;;;;;;5108963;28;19919;-66
2023/05/27 03:05:48;;;;;;;;;;;21.10;75.30;;;;;;5113328;28;20398;-65
2023/05/27 03:08:15;;;;;;;;;;;21.30;74.10;;;;;;5116065;28;19943;-66
2023/05/27 03:10:41;;;;;;;;;;;21.90;70.60;;;;;;5115414;28;20422;-66
2023/05/27 03:13:08;;;;;;;;;;;22.70;68.60;;;;;;5116137;28;19961;-66
2023/05/27 03:15:35;;;;;;;;;;;23.10;67.00;;;;;;5097130;28;19999;-65
2023/05/27 03:18:03;;;;;;;;;;;23.00;67.40;;;;;;5095570;28;19920;-66
2023/05/27 03:20:30;;;;;;;;;;;22.60;68.80;;;;;;5102087;28;19908;-65
2023/05/27 03:22:56;;;;;;;;;;;22.30;69.50;;;;;;5115711;28;19908;-66
2023/05/27 03:25:23;;;;;;;;;;;22.10;69.40;;;;;;5097991;28;19963;-63
2023/05/27 03:27:50;;;;;;;;;;;22.20;69.70;;;;;;5095281;28;19908;-66
2023/05/27 03:30:16;;;;;;;;;;;22.10;67.90;;;;;;5081439;28;20015;-66
2023/05/27 03:32:43;;;;;;;;;;;22.20;68.40;;;;;;5095039;28;19912;-66
2023/05/27 03:35:10;;;;;;;;;;;23.50;67.70;;;;;;5094861;28;19953;-66
2023/05/27 03:37:36;;;;;;;;;;;25.40;64.40;;;;;;5095041;28;19908;-66
2023/05/27 03:40:03;;;;;;;;;;;26.80;61.60;;;;;;5097817;28;19908;-66
2023/05/27 03:42:30;;;;;;;;;;;28.10;59.60;;;;;;5097634;28;19920;-66
2023/05/27 03:44:57;;;;;;;;;;;28.80;57.30;;;;;;5094484;28;19912;-66
2023/05/27 03:47:23;;;;;;;;;;;29.40;56.70;;;;;;5094843;28;20002;-66
2023/05/27 03:49:50;;;;;;;;;;;29.90;55.90;;;;;;5095685;28;19999;-68
2023/05/27 03:52:16;;;;;;;;;;;30.50;53.80;;;;;;5095822;28;19934;-66
2023/05/27 03:54:43;;;;;;;;;;;31.10;52.80;;;;;;5112100;28;19912;-65
2023/05/27 03:57:10;;;;;;;;;;;31.40;51.90;;;;;;5115127;28;19908;-66
2023/05/27 03:59:37;;;;;;;;;;;31.60;50.90;;;;;;5102214;28;19912;-69
2023/05/27 04:02:04;;;;;;;;;;;31.10;50.00;;;;;;5114425;28;19908;-66
2023/05/27 04:04:31;;;;;;;;;;;30.50;51.60;;;;;;5113991;28;19908;-66
2023/05/27 04:06:57;;;;;;;;;;;30.60;51.10;;;;;;5114900;28;20022;-66
2023/05/27 04:09:24;;;;;;;;;;;30.70;50.20;;;;;;5114852;28;20060;-67
2023/05/27 04:11:51;;;;;;;;;;;30.40;50.40;;;;;;5103989;28;19911;-66
2023/05/27 04:14:17;;;;;;;;;;;29.30;51.10;;;;;;5114316;28;19967;-66
2023/05/27 04:16:44;;;;;;;;;;;27.70;52.00;;;;;;5094021;28;19908;-66
2023/05/27 04:19:10;;;;;;;;;;;26.00;54.10;;;;;;5094138;28;19916;-66
2023/05/27 04:21:37;;;;;;;;;;;24.70;55.40;;;;;;5109636;28;19961;-65
2023/05/27 04:24:04;;;;;;;;;;;23.30;58.10;;;;;;5114405;28;19976;-66
2023/05/27 04:26:32;;;;;;;;;;;22.30;60.00;;;;;;5108934;28;19908;-65
2023/05/27 04:29:04;;;;;;;;;;;21.30;61.90;;;;;;5093986;28;20452;-65
2023/05/27 04:31:30;;;;;;;;;;;20.80;62.60;;;;;;5109149;28;19908;-65
2023/05/27 04:33:57;;;;;;;;;;;20.30;64.30;;;;;;5114295;28;19922;-65
2023/05/27 04:36:26;;;;;;;;;;;20.10;64.70;;;;;;5112415;28;19908;-66
2023/05/27 04:38:53;;;;;;;;;;;19.80;66.00;;;;;;5105358;28;19912;-65
2023/05/27 04:41:28;;;;;;;;;;;19.50;67.60;;;;;;5112439;28;20039;-67
2023/05/27 04:43:58;;;;;;;;;;;19.40;67.10;;;;;;5113425;28;19912;-65
2023/05/27 04:46:28;;;;;;;;;;;19.30;68.00;;;;;;5114194;28;20073;-66
2023/05/27 04:48:55;;;;;;;;;;;19.20;68.30;;;;;;5106562;28;19977;-66
2023/05/27 04:51:22;;;;;;;;;;;19.10;67.70;;;;;;5107036;28;19968;-65
2023/05/27 04:53:49;;;;;;;;;;;19.10;69.20;;;;;;5112166;28;20276;-66
2023/05/27 04:56:17;;;;;;;;;;;19.00;68.30;;;;;;5093736;28;19904;-66
2023/05/27 04:58:48;;;;;;;;;;;19.00;68.50;;;;;;5093796;28;20280;-66
2023/05/27 05:01:20;;;;;;;;;;;19.00;69.10;;;;;;5094270;28;20420;-66
2023/05/27 05:04:02;;;;;;;;;;;19.00;69.50;;;;;;5093220;28;19927;-66
2023/05/27 05:06:29;;;;;;;;;;;18.90;70.60;;;;;;5093744;28;19905;-66
2023/05/27 05:08:56;;;;;;;;;;;19.00;70.00;;;;;;5103126;28;19929;-66
2023/05/27 05:11:23;;;;;;;;;;;19.30;71.10;;;;;;5113125;28;19908;-67
2023/05/27 05:13:49;;;;;;;;;;;19.50;69.40;;;;;;5093544;28;19919;-66
2023/05/27 05:16:16;;;;;;;;;;;19.60;70.00;;;;;;5093228;28;19908;-66
2023/05/27 05:18:42;;;;;;;;;;;19.60;70.00;;;;;;5093243;28;19915;-67
2023/05/27 05:21:09;;;;;;;;;;;19.40;70.20;;;;;;5105282;28;19915;-66
2023/05/27 05:23:36;;;;;;;;;;;19.30;71.60;;;;;;5094358;28;19916;-66
2023/05/27 05:26:06;;;;;;;;;;;19.10;72.90;;;;;;5111183;28;19911;-66
2023/05/27 05:28:34;;;;;;;;;;;19.00;73.60;;;;;;5112611;28;19916;-65
2023/05/27 05:31:01;;;;;;;;;;;19.00;73.00;;;;;;5113246;28;19918;-65
2023/05/27 05:33:27;;;;;;;;;;;18.90;73.70;;;;;;5113049;28;20022;-66
2023/05/27 05:35:55;;;;;;;;;;;18.90;73.50;;;;;;5110581;28;19912;-66
2023/05/27 05:38:22;;;;;;;;;;;19.00;73.90;;;;;;5106497;28;19919;-66
2023/05/27 05:40:52;;;;;;;;;;;19.10;73.80;;;;;;5112536;28;19916;-66
2023/05/27 05:43:19;;;;;;;;;;;19.20;73.70;;;;;;5112820;28;19912;-65
2023/05/27 05:45:46;;;;;;;;;;;19.40;73.20;;;;;;5094089;28;19919;-66
2023/05/27 05:48:13;;;;;;;;;;;19.60;73.10;;;;;;5096780;28;19911;-66
2023/05/27 05:50:39;;;;;;;;;;;19.70;74.00;;;;;;5112613;28;20014;-65
2023/05/27 05:53:06;;;;;;;;;;;19.60;73.10;;;;;;5101649;28;20280;-66
2023/05/27 05:55:33;;;;;;;;;;;19.60;73.40;;;;;;5112423;28;19915;-65
2023/05/27 05:58:00;;;;;;;;;;;19.90;73.60;;;;;;5112706;28;19912;-65
2023/05/27 06:00:27;;;;;;;;;;;20.40;72.00;;;;;;5110689;28;20329;-66
2023/05/27 06:02:53;;;;;;;;;;;20.70;71.30;;;;;;5112410;28;19914;-66
2023/05/27 06:05:22;;;;;;;;;;;20.80;70.80;;;;;;5112048;28;19929;-67
2023/05/27 06:07:48;;;;;;;;;;;20.90;69.60;;;;;;5092327;28;20356;-66
2023/05/27 06:10:16;;;;;;;;;;;20.70;69.70;;;;;;5097060;28;20404;-66
2023/05/27 06:12:43;;;;;;;;;;;20.90;69.20;;;;;;5105463;28;20288;-67
2023/05/27 06:15:09;;;;;;;;;;;20.70;69.70;;;;;;5092402;28;19909;-67
2023/05/27 06:17:36;;;;;;;;;;;20.00;70.50;;;;;;5109521;28;19998;-67
2023/05/27 06:20:03;;;;;;;;;;;19.40;72.30;;;;;;5112939;28;19918;-66
2023/05/27 06:22:30;;;;;;;;;;;18.80;74.00;;;;;;5112629;28;20253;-65
2023/05/27 06:24:56;;;;;;;;;;;18.20;75.30;;;;;;5103768;28;19962;-66
2023/05/27 06:27:23;;;;;;;;;;;17.60;75.90;;;;;;5104434;28;19912;-65
2023/05/27 06:29:50;;;;;;;;;;;17.30;77.10;;;;;;5112442;28;19916;-65
2023/05/27 06:32:17;;;;;;;;;;;16.90;78.60;;;;;;5112635;28;19908;-66
2023/05/27 06:34:43;;;;;;;;;;;16.60;79.30;;;;;;5103377;28;19919;-68
2023/05/27 06:37:10;;;;;;;;;;;16.30;80.70;;;;;;5107301;28;20360;-65
2023/05/27 06:39:36;;;;;;;;;;;16.10;80.40;;;;;;5116787;28;19919;-68
2023/05/27 06:42:03;;;;;;;;;;;15.90;80.90;;;;;;5116557;28;19926;-67
2023/05/27 06:44:30;;;;;;;;;;;15.70;81.00;;;;;;5114438;28;20049;-67
2023/05/27 06:46:57;;;;;;;;;;;15.60;81.70;;;;;;5097580;28;19912;-66
2023/05/27 06:49:23;;;;;;;;;;;15.40;81.80;;;;;;5108226;28;20287;-65
2023/05/27 06:51:50;;;;;;;;;;;15.30;82.40;;;;;;5108364;28;19912;-66
2023/05/27 06:54:17;;;;;;;;;;;15.20;82.90;;;;;;5096202;28;19919;-66
2023/05/27 06:56:43;;;;;;;;;;;15.10;82.80;;;;;;5096077;28;19953;-66
2023/05/27 06:59:10;;;;;;;;;;;15.00;83.20;;;;;;5096091;28;19916;-66
2023/05/27 07:01:36;;;;;;;;;;;14.90;83.30;;;;;;5108372;28;20277;-67
2023/05/27 07:04:03;;;;;;;;;;;14.80;83.70;;;;;;5095811;28;20343;-66
2023/05/27 07:06:30;;;;;;;;;;;14.70;83.90;;;;;;5096108;28;19914;-65
2023/05/27 07:08:56;;;;;;;;;;;14.60;85.00;;;;;;5095522;28;20394;-65
2023/05/27 07:11:23;;;;;;;;;;;14.60;85.20;;;;;;5106637;28;19924;-67
2023/05/27 07:13:50;;;;;;;;;;;14.50;85.40;;;;;;5095046;28;20356;-67
2023/05/27 07:16:17;;;;;;;;;;;14.40;85.50;;;;;;5095142;28;19960;-67
2023/05/27 07:18:43;;;;;;;;;;;14.40;85.80;;;;;;5095650;28;19908;-66
2023/05/27 07:21:10;;;;;;;;;;;14.20;85.80;;;;;;5106489;28;20044;-66
2023/05/27 07:23:36;;;;;;;;;;;14.20;86.10;;;;;;5099916;28;19969;-67
2023/05/27 07:26:03;;;;;;;;;;;14.10;85.90;;;;;;5115207;28;20424;-66
2023/05/27 07:28:30;;;;;;;;;;;14.10;86.20;;;;;;5116017;28;19926;-67
2023/05/27 07:30:56;;;;;;;;;;;13.90;86.80;;;;;;5115089;28;19944;-64
2023/05/27 07:33:23;;;;;;;;;;;13.90;87.00;;;;;;5095261;28;19912;-66
2023/05/27 07:35:50;;;;;;;;;;;13.80;87.30;;;;;;5076552;28;19916;-66
2023/05/27 07:38:16;;;;;;;;;;;13.80;87.80;;;;;;5095189;28;20428;-66
2023/05/27 07:40:43;;;;;;;;;;;13.70;88.10;;;;;;5109710;28;19919;-66
2023/05/27 07:43:10;;;;;;;;;;;13.70;88.20;;;;;;5115408;28;20376;-65
2023/05/27 07:45:37;;;;;;;;;;;13.60;88.60;;;;;;5110544;28;19919;-66
2023/05/27 07:48:03;;;;;;;;;;;13.60;88.40;;;;;;5095022;28;19923;-67
2023/05/27 07:50:30;;;;;;;;;;;13.50;88.80;;;;;;5101790;28;19918;-67
2023/05/27 07:52:56;;;;;;;;;;;13.50;88.30;;;;;;5115330;28;19907;-67
2023/05/27 07:55:23;;;;;;;;;;;13.40;88.40;;;;;;5113024;28;19930;-67
2023/05/27 07:57:50;;;;;;;;;;;13.30;88.60;;;;;;5094552;28;19908;-66
2023/05/27 08:00:16;;;;;;;;;;;13.30;88.30;;;;;;5099636;28;19916;-66
2023/05/27 08:02:43;;;;;;;;;;;13.20;87.90;;;;;;5115144;28;19960;-66
2023/05/27 08:05:10;;;;;;;;;;;13.20;88.10;;;;;;5114338;28;19908;-66
2023/05/27 08:07:37;;;;;;;;;;;13.10;87.80;;;;;;5112717;28;20280;-66
2023/05/27 08:10:04;;;;;;;;;;;13.10;88.30;;;;;;5109305;28;19920;-65
2023/05/27 08:12:30;;;;;;;;;;;13.00;88.50;;;;;;5114833;28;19983;-66
2023/05/27 08:14:57;;;;;;;;;;;13.00;88.30;;;;;;5083614;28;20006;-66
2023/05/27 08:17:24;;;;;;;;;;;12.90;88.50;;;;;;5100805;28;19930;-65
2023/05/27 08:19:50;;;;;;;;;;;12.90;88.50;;;;;;5107481;28;19919;-66
2023/05/27 08:22:17;;;;;;;;;;;12.90;89.20;;;;;;5114922;28;19916;-66
2023/05/27 08:24:43;;;;;;;;;;;12.80;88.90;;;;;;5114700;28;20380;-66
2023/05/27 08:27:13;;;;;;;;;;;12.80;89.10;;;;;;5111379;28;19916;-65
2023/05/27 08:29:40;;;;;;;;;;;12.80;89.60;;;;;;5114407;28;19915;-66
2023/05/27 08:32:07;;;;;;;;;;;12.70;89.70;;;;;;5095497;28;20510;-65
2023/05/27 08:34:33;;;;;;;;;;;12.60;89.50;;;;;;5106698;28;19951;-66
2023/05/27 08:37:01;;;;;;;;;;;12.70;89.70;;;;;;5105611;28;20015;-67
2023/05/27 08:39:27;;;;;;;;;;;12.60;89.70;;;;;;5104645;28;19916;-67
2023/05/27 08:41:54;;;;;;;;;;;12.60;89.50;;;;;;5114143;28;19924;-66
2023/05/27 08:44:24;;;;;;;;;;;12.50;89.60;;;;;;5114431;28;20000;-66
2023/05/27 08:46:51;;;;;;;;;;;12.50;90.10;;;;;;5114202;28;19943;-65
2023/05/27 08:49:18;;;;;;;;;;;12.40;90.20;;;;;;5114286;28;19955;-66
2023/05/27 08:51:45;;;;;;;;;;;12.50;90.00;;;;;;5112068;28;19912;-66
2023/05/27 08:54:12;;;;;;;;;;;12.40;90.10;;;;;;5113571;28;19972;-67
2023/05/27 08:56:40;;;;;;;;;;;12.40;90.30;;;;;;5113573;28;19915;-67
2023/05/27 08:59:07;;;;;;;;;;;12.30;90.30;;;;;;5113392;28;19908;-64
2023/05/27 09:01:33;;;;;;;;;;;12.20;90.50;;;;;;5103041;28;20412;-63
2023/05/27 09:04:00;;;;;;;;;;;12.20;90.70;;;;;;5104439;28;20265;-65
2023/05/27 09:06:27;;;;;;;;;;;12.20;90.70;;;;;;5093332;28;19958;-66
2023/05/27 09:08:53;;;;;;;;;;;12.20;90.50;;;;;;5110779;28;20002;-65
2023/05/27 09:11:21;;;;;;;;;;;12.20;90.70;;;;;;5112973;28;19915;-65
2023/05/27 09:13:48;;;;;;;;;;;12.20;90.90;;;;;;5093384;28;19912;-65
2023/05/27 09:16:20;;;;;;;;;;;12.20;90.90;;;;;;5092976;28;19912;-65
2023/05/27 09:18:46;;;;;;;;;;;12.10;91.00;;;;;;5103125;28;20018;-66
2023/05/27 09:21:13;;;;;;;;;;;12.10;91.40;;;;;;5113571;28;19907;-66
2023/05/27 09:23:40;;;;;;;;;;;12.10;91.70;;;;;;5109228;28;20288;-67
2023/05/27 09:26:10;;;;;;;;;;;12.00;91.60;;;;;;5095213;28;20014;-65
2023/05/27 09:28:38;;;;;;;;;;;11.90;92.50;;;;;;5113503;28;19919;-65
2023/05/27 09:31:06;;;;;;;;;;;11.90;92.40;;;;;;5112899;28;19930;-62
2023/05/27 09:33:34;;;;;;;;;;;11.90;93.10;;;;;;5112559;28;20021;-66
2023/05/27 09:36:01;;;;;;;;;;;11.80;93.20;;;;;;5111834;28;19927;-66
2023/05/27 09:38:29;;;;;;;;;;;11.70;93.20;;;;;;5112378;28;19916;-66
2023/05/27 09:40:57;;;;;;;;;;;11.60;93.40;;;;;;5111898;28;19919;-65
2023/05/27 09:43:25;;;;;;;;;;;11.50;93.70;;;;;;5105265;28;19911;-65
2023/05/27 09:45:52;;;;;;;;;;;11.40;94.10;;;;;;5112142;28;20381;-64
2023/05/27 09:48:20;;;;;;;;;;;11.50;94.40;;;;;;5112426;28;19939;-63
2023/05/27 09:50:48;;;;;;;;;;;11.40;94.60;;;;;;5109359;28;20440;-64
2023/05/27 09:53:16;;;;;;;;;;;11.20;94.70;;;;;;5111061;28;20275;-64
2023/05/27 09:55:43;;;;;;;;;;;11.20;94.90;;;;;;5112457;28;19973;-65
2023/05/27 09:58:10;;;;;;;;;;;11.20;95.00;;;;;;5112139;28;19937;-66
2023/05/27 10:00:37;;;;;;;;;;;11.20;95.30;;;;;;5111827;28;19961;-66
2023/05/27 10:03:05;;;;;;;;;;;11.10;95.50;;;;;;5111380;28;20369;-63
2023/05/27 10:05:33;;;;;;;;;;;11.10;95.60;;;;;;5111115;28;19912;-66
2023/05/27 10:08:01;;;;;;;;;;;11.00;95.70;;;;;;5111996;28;20386;-63
2023/05/27 10:10:28;;;;;;;;;;;10.90;95.50;;;;;;5108356;28;20083;-67
2023/05/27 10:12:55;;;;;;;;;;;10.90;95.60;;;;;;5111164;28;19950;-63
2023/05/27 10:15:27;;;;;;;;;;;10.90;95.80;;;;;;5110089;28;19911;-66
2023/05/27 10:17:56;;;;;;;;;;;10.80;96.10;;;;;;5110996;28;20444;-66
2023/05/27 10:20:32;;;;;;;;;;;10.90;95.90;;;;;;5111815;28;19969;-66
2023/05/27 10:23:12;;;;;;;;;;;10.90;96.00;;;;;;5112362;28;19919;-66
2023/05/27 10:25:40;;;;;;;;;;;10.90;96.00;;;;;;5111049;28;19919;-66
2023/05/27 10:28:07;;;;;;;;;;;10.90;95.80;;;;;;5111443;28;20527;-65
2023/05/27 10:30:46;;;;;;;;;;;10.90;96.20;;;;;;5106050;28;20355;-65
2023/05/27 10:33:13;;;;;;;;;;;10.80;95.90;;;;;;5101113;28;19912;-66
2023/05/27 10:35:43;;;;;;;;;;;10.80;95.90;;;;;;5105006;28;20322;-66
2023/05/27 10:38:17;;;;;;;;;;;10.80;96.10;;;;;;5109666;28;19920;-66
2023/05/27 10:40:45;;;;;;;;;;;10.80;96.40;;;;;;5107094;28;19912;-64
2023/05/27 10:43:18;;;;;;;;;;;10.80;96.20;;;;;;5100531;28;19927;-66
2023/05/27 10:45:46;;;;;;;;;;;10.80;96.30;;;;;;5110298;28;19911;-65
2023/05/27 10:48:16;;;;;;;;;;;10.80;96.60;;;;;;5116317;28;19920;-65
2023/05/27 10:50:50;;;;;;;;;;;10.80;96.60;;;;;;5109921;28;20010;-66
2023/05/27 10:53:18;;;;;;;;;;;10.70;96.80;;;;;;5110704;28;20297;-63
2023/05/27 10:55:45;;;;;;;;;;;10.60;97.00;;;;;;5109924;28;19911;-65
2023/05/27 10:58:12;;;;;;;;;;;10.60;97.30;;;;;;5109057;28;20421;-64
2023/05/27 11:00:40;;;;;;;;;;;10.60;97.40;;;;;;5110565;28;19914;-64
2023/05/27 11:03:16;;;;;;;;;;;10.50;97.60;;;;;;5108989;28;19963;-66
2023/05/27 11:05:43;;;;;;;;;;;10.50;98.00;;;;;;5111234;28;19907;-65
2023/05/27 11:08:13;;;;;;;;;;;10.40;98.10;;;;;;5110929;28;20007;-66
2023/05/27 11:10:42;;;;;;;;;;;10.40;98.30;;;;;;5110379;28;20467;-64
2023/05/27 11:13:09;;;;;;;;;;;10.30;98.60;;;;;;5109418;28;20428;-65
2023/05/27 11:15:39;;;;;;;;;;;10.30;98.90;;;;;;5111999;28;19908;-65
2023/05/27 11:18:07;;;;;;;;;;;10.20;99.20;;;;;;5108110;28;19916;-65
2023/05/27 11:20:37;;;;;;;;;;;10.20;99.10;;;;;;5111507;28;19915;-66
2023/05/27 11:23:04;;;;;;;;;;;10.10;98.90;;;;;;5114962;28;19923;-63
2023/05/27 11:25:41;;;;;;;;;;;10.10;99.00;;;;;;5113777;28;19916;-62
2023/05/27 11:28:16;;;;;;;;;;;10.10;99.10;;;;;;5115402;28;19908;-66
2023/05/27 11:30:43;;;;;;;;;;;10.00;99.40;;;;;;5100231;28;20387;-62
2023/05/27 11:33:10;;;;;;;;;;;10.00;99.70;;;;;;5094714;28;20016;-66
2023/05/27 11:35:37;;;;;;;;;;;10.00;99.90;;;;;;5093946;28;19908;-62
2023/05/27 11:38:04;;;;;;;;;;;10.00;99.90;;;;;;5076074;28;19912;-61
2023/05/27 11:40:37;;;;;;;;;;;9.90;99.90;;;;;;5103098;28;19996;-64
2023/05/27 11:43:03;;;;;;;;;;;9.90;99.90;;;;;;5112377;28;19923;-63
2023/05/27 11:45:35;;;;;;;;;;;9.90;99.90;;;;;;5114257;28;19960;-64
2023/05/27 11:48:02;;;;;;;;;;;9.70;99.90;;;;;;5113974;28;19911;-65
2023/05/27 11:50:29;;;;;;;;;;;9.70;99.90;;;;;;5113875;28;19922;-64
2023/05/27 11:53:02;;;;;;;;;;;9.80;99.90;;;;;;5104041;28;19918;-65
2023/05/27 11:55:30;;;;;;;;;;;9.70;99.90;;;;;;5093991;28;19912;-62
2023/05/27 11:57:56;;;;;;;;;;;9.60;99.90;;;;;;5096344;28;19912;-63
2023/05/27 12:00:23;;;;;;;;;;;9.70;99.90;;;;;;5114509;28;19915;-60
2023/05/27 12:02:50;;;;;;;;;;;9.60;99.90;;;;;;5114300;28;19907;-65
2023/05/27 12:05:16;;;;;;;;;;;9.60;99.90;;;;;;5113842;28;20431;-63
2023/05/27 12:07:44;;;;;;;;;;;9.50;99.90;;;;;;5113480;28;19943;-65
2023/05/27 12:10:10;;;;;;;;;;;9.50;99.90;;;;;;5114427;28;19956;-65
2023/05/27 12:12:38;;;;;;;;;;;9.40;99.90;;;;;;5113908;28;20288;-62
2023/05/27 12:15:05;;;;;;;;;;;9.30;99.90;;;;;;5114271;28;19915;-62
2023/05/27 12:17:32;;;;;;;;;;;9.30;99.90;;;;;;5112524;28;19931;-63
2023/05/27 12:19:59;;;;;;;;;;;9.30;99.90;;;;;;5114184;28;19935;-64
2023/05/27 12:22:25;;;;;;;;;;;9.20;99.90;;;;;;5114455;28;19915;-63
2023/05/27 12:24:52;;;;;;;;;;;9.30;99.90;;;;;;5114024;28;20421;-63
2023/05/27 12:27:20;;;;;;;;;;;9.20;99.90;;;;;;5114214;28;20382;-66
2023/05/27 12:29:46;;;;;;;;;;;9.20;99.90;;;;;;5106587;28;19920;-64
2023/05/27 12:32:13;;;;;;;;;;;9.20;99.90;;;;;;5093113;28;20292;-65
2023/05/27 12:34:40;;;;;;;;;;;9.20;99.90;;;;;;5093595;28;19908;-63
2023/05/27 12:37:06;;;;;;;;;;;9.20;99.90;;;;;;5093844;28;19916;-66
2023/05/27 12:39:33;;;;;;;;;;;9.10;99.90;;;;;;5113154;28;19919;-63
2023/05/27 12:42:01;;;;;;;;;;;9.10;99.90;;;;;;5105502;28;19920;-63
2023/05/27 12:44:27;;;;;;;;;;;9.00;99.90;;;;;;5093426;28;19927;-66
2023/05/27 12:46:54;;;;;;;;;;;9.00;99.90;;;;;;5108469;28;19919;-68
2023/05/27 12:49:21;;;;;;;;;;;8.90;99.90;;;;;;5113053;28;19927;-64
2023/05/27 12:51:47;;;;;;;;;;;8.90;99.90;;;;;;5113534;28;19911;-64
2023/05/27 12:54:14;;;;;;;;;;;9.00;99.90;;;;;;5104604;28;19911;-65
2023/05/27 12:56:41;;;;;;;;;;;8.90;99.90;;;;;;5093653;28;20347;-67
2023/05/27 12:59:08;;;;;;;;;;;9.00;99.90;;;;;;5093952;28;19995;-67
2023/05/27 13:01:34;;;;;;;;;;;9.00;99.90;;;;;;5094995;28;20019;-64
2023/05/27 13:04:01;;;;;;;;;;;9.00;99.90;;;;;;5093325;28;19916;-63
2023/05/27 13:06:28;;;;;;;;;;;9.00;99.90;;;;;;5101550;28;19973;-63
2023/05/27 13:08:54;;;;;;;;;;;9.00;99.90;;;;;;5093010;28;20365;-65
2023/05/27 13:11:21;;;;;;;;;;;9.10;99.90;;;;;;5093192;28;19912;-67
2023/05/27 13:13:48;;;;;;;;;;;9.00;99.90;;;;;;5100586;28;20336;-65
2023/05/27 13:16:15;;;;;;;;;;;9.10;99.90;;;;;;5113565;28;20333;-63
2023/05/27 13:18:41;;;;;;;;;;;9.10;99.90;;;;;;5097627;28;19919;-64
2023/05/27 13:21:08;;;;;;;;;;;9.10;99.90;;;;;;5096968;28;19922;-66
2023/05/27 13:23:35;;;;;;;;;;;9.10;99.90;;;;;;5113306;28;20368;-68
2023/05/27 13:26:01;;;;;;;;;;;9.10;99.90;;;;;;5113764;28;19908;-64
2023/05/27 13:28:28;;;;;;;;;;;9.10;99.90;;;;;;5113298;28;19954;-63
2023/05/27 13:30:55;;;;;;;;;;;9.10;99.90;;;;;;5095354;28;20294;-66
2023/05/27 13:33:22;;;;;;;;;;;9.10;99.90;;;;;;5092871;28;19919;-67
2023/05/27 13:35:49;;;;;;;;;;;9.00;99.90;;;;;;5092810;28;19943;-66
2023/05/27 13:38:16;;;;;;;;;;;9.00;99.90;;;;;;5092919;28;19915;-63
2023/05/27 13:40:43;;;;;;;;;;;9.00;99.90;;;;;;5092965;28;19908;-65
2023/05/27 13:43:09;;;;;;;;;;;9.00;99.90;;;;;;5113022;28;19915;-67
2023/05/27 13:45:36;;;;;;;;;;;8.90;99.90;;;;;;5113280;28;20397;-66
2023/05/27 13:48:03;;;;;;;;;;;9.00;99.90;;;;;;5113500;28;19984;-66
2023/05/27 13:50:31;;;;;;;;;;;9.00;99.90;;;;;;5112908;28;20291;-62
2023/05/27 13:52:57;;;;;;;;;;;9.00;99.90;;;;;;5093756;28;20254;-66
2023/05/27 13:55:24;;;;;;;;;;;8.90;99.90;;;;;;5095607;28;19912;-66
2023/05/27 13:57:51;;;;;;;;;;;9.00;99.90;;;;;;5112916;28;20357;-65
2023/05/27 14:00:17;;;;;;;;;;;8.90;99.90;;;;;;5113115;28;20431;-67
2023/05/27 14:02:44;;;;;;;;;;;8.90;99.90;;;;;;5112504;28;19907;-66
2023/05/27 14:05:11;;;;;;;;;;;9.00;99.90;;;;;;5092497;28;19998;-66
2023/05/27 14:07:42;;;;;;;;;;;8.90;99.90;;;;;;5092694;28;19924;-64
2023/05/27 14:10:09;;;;;;;;;;;8.90;99.90;;;;;;5093485;28;19917;-65
2023/05/27 14:12:36;;;;;;;;;;;8.90;99.90;;;;;;5092407;28;19916;-67
2023/05/27 14:15:03;;;;;;;;;;;8.90;99.90;;;;;;5095374;28;20312;-64
2023/05/27 14:17:30;;;;;;;;;;;9.00;99.90;;;;;;5113209;28;20367;-65
2023/05/27 14:19:57;;;;;;;;;;;9.00;99.90;;;;;;5112673;28;20456;-66